sensor_id;sensor_type;location;lat;lon;timestamp;P1;durP1;ratioP1;P2;durP2;ratioP2
44728;SDS011;30457;53.590;9.922;2023-09-12T00:00:23;30.63;;;20.08;;
44728;SDS011;30457;53.590;9.922;2023-09-12T00:04:49;28.42;;;18.95;;
44728;SDS011;30457;53.590;9.922;2023-09-12T00:09:15;27.33;;;17.88;;
44728;SDS011;30457;53.590;9.922;2023-09-12T00:13:41;29.85;;;19.20;;
44728;SDS011;30457;53.590;9.922;2023-09-12T00:18:06;21.88;;;15.35;;
44728;SDS011;30457;53.590;9.922;2023-09-12T00:22:32;26.02;;;16.05;;
44728;SDS011;30457;53.590;9.922;2023-09-12T00:26:58;22.38;;;13.43;;
44728;SDS011;30457;53.590;9.922;2023-09-12T00:31:23;21.65;;;12.63;;
44728;SDS011;30457;53.590;9.922;2023-09-12T00:35:49;22.40;;;12.80;;
44728;SDS011;30457;53.590;9.922;2023-09-12T00:40:14;29.23;;;13.43;;
44728;SDS011;30457;53.590;9.922;2023-09-12T00:44:40;18.95;;;12.77;;
44728;SDS011;30457;53.590;9.922;2023-09-12T00:49:06;19.25;;;11.98;;
44728;SDS011;30457;53.590;9.922;2023-09-12T00:53:33;15.18;;;12.15;;
44728;SDS011;30457;53.590;9.922;2023-09-12T00:57:58;20.17;;;11.07;;
44728;SDS011;30457;53.590;9.922;2023-09-12T01:02:25;19.40;;;11.10;;
44728;SDS011;30457;53.590;9.922;2023-09-12T01:06:51;20.10;;;11.68;;
44728;SDS011;30457;53.590;9.922;2023-09-12T01:11:17;19.80;;;11.52;;
44728;SDS011;30457;53.590;9.922;2023-09-12T01:15:42;16.50;;;10.73;;
44728;SDS011;30457;53.590;9.922;2023-09-12T01:20:11;18.23;;;10.30;;
44728;SDS011;30457;53.590;9.922;2023-09-12T01:24:45;14.80;;;11.27;;
44728;SDS011;30457;53.590;9.922;2023-09-12T01:29:33;18.92;;;10.60;;
44728;SDS011;30457;53.590;9.922;2023-09-12T01:34:09;14.70;;;10.98;;
44728;SDS011;30457;53.590;9.922;2023-09-12T01:38:36;14.93;;;11.30;;
44728;SDS011;30457;53.590;9.922;2023-09-12T01:43:01;15.85;;;10.43;;
44728;SDS011;30457;53.590;9.922;2023-09-12T01:47:30;15.43;;;10.73;;
44728;SDS011;30457;53.590;9.922;2023-09-12T01:51:56;17.42;;;11.02;;
44728;SDS011;30457;53.590;9.922;2023-09-12T01:56:24;13.30;;;10.02;;
44728;SDS011;30457;53.590;9.922;2023-09-12T02:00:50;15.88;;;11.60;;
44728;SDS011;30457;53.590;9.922;2023-09-12T02:05:22;16.15;;;11.27;;
44728;SDS011;30457;53.590;9.922;2023-09-12T02:09:49;15.38;;;11.13;;
44728;SDS011;30457;53.590;9.922;2023-09-12T02:14:15;14.80;;;11.18;;
44728;SDS011;30457;53.590;9.922;2023-09-12T02:18:41;19.55;;;12.07;;
44728;SDS011;30457;53.590;9.922;2023-09-12T02:23:06;18.63;;;12.23;;
44728;SDS011;30457;53.590;9.922;2023-09-12T02:27:32;18.30;;;12.40;;
44728;SDS011;30457;53.590;9.922;2023-09-12T02:31:58;16.17;;;10.43;;
44728;SDS011;30457;53.590;9.922;2023-09-12T02:36:23;19.33;;;11.40;;
44728;SDS011;30457;53.590;9.922;2023-09-12T02:40:49;19.20;;;12.48;;
44728;SDS011;30457;53.590;9.922;2023-09-12T02:45:15;18.15;;;12.32;;
44728;SDS011;30457;53.590;9.922;2023-09-12T02:49:41;23.05;;;11.65;;
44728;SDS011;30457;53.590;9.922;2023-09-12T02:54:07;21.35;;;13.48;;
44728;SDS011;30457;53.590;9.922;2023-09-12T02:58:32;15.23;;;11.95;;
44728;SDS011;30457;53.590;9.922;2023-09-12T03:02:58;23.08;;;12.77;;
44728;SDS011;30457;53.590;9.922;2023-09-12T03:07:24;23.83;;;15.07;;
44728;SDS011;30457;53.590;9.922;2023-09-12T03:11:50;21.63;;;13.27;;
44728;SDS011;30457;53.590;9.922;2023-09-12T03:16:15;21.00;;;14.57;;
44728;SDS011;30457;53.590;9.922;2023-09-12T03:20:41;20.42;;;14.18;;
44728;SDS011;30457;53.590;9.922;2023-09-12T03:25:07;27.55;;;17.15;;
44728;SDS011;30457;53.590;9.922;2023-09-12T03:29:32;26.20;;;16.38;;
44728;SDS011;30457;53.590;9.922;2023-09-12T03:33:58;24.35;;;15.73;;
44728;SDS011;30457;53.590;9.922;2023-09-12T03:38:24;20.20;;;13.07;;
44728;SDS011;30457;53.590;9.922;2023-09-12T03:42:49;20.23;;;14.13;;
44728;SDS011;30457;53.590;9.922;2023-09-12T03:47:15;21.05;;;13.70;;
44728;SDS011;30457;53.590;9.922;2023-09-12T03:51:41;20.40;;;14.65;;
44728;SDS011;30457;53.590;9.922;2023-09-12T03:56:07;23.83;;;14.63;;
44728;SDS011;30457;53.590;9.922;2023-09-12T04:00:35;23.40;;;15.70;;
44728;SDS011;30457;53.590;9.922;2023-09-12T04:05:00;25.42;;;16.33;;
44728;SDS011;30457;53.590;9.922;2023-09-12T04:09:26;22.15;;;14.90;;
44728;SDS011;30457;53.590;9.922;2023-09-12T04:13:52;23.92;;;15.10;;
44728;SDS011;30457;53.590;9.922;2023-09-12T04:18:18;22.85;;;14.65;;
44728;SDS011;30457;53.590;9.922;2023-09-12T04:22:44;26.88;;;15.02;;
44728;SDS011;30457;53.590;9.922;2023-09-12T04:27:10;19.92;;;14.55;;
44728;SDS011;30457;53.590;9.922;2023-09-12T04:31:35;26.90;;;16.92;;
44728;SDS011;30457;53.590;9.922;2023-09-12T04:36:01;20.10;;;15.00;;
44728;SDS011;30457;53.590;9.922;2023-09-12T04:40:28;24.50;;;15.80;;
44728;SDS011;30457;53.590;9.922;2023-09-12T04:44:53;30.40;;;15.93;;
44728;SDS011;30457;53.590;9.922;2023-09-12T04:49:19;25.98;;;16.42;;
44728;SDS011;30457;53.590;9.922;2023-09-12T04:53:45;29.58;;;16.52;;
44728;SDS011;30457;53.590;9.922;2023-09-12T04:58:16;26.00;;;16.27;;
44728;SDS011;30457;53.590;9.922;2023-09-12T05:02:42;23.60;;;15.52;;
44728;SDS011;30457;53.590;9.922;2023-09-12T05:07:07;24.10;;;15.52;;
44728;SDS011;30457;53.590;9.922;2023-09-12T05:11:33;29.58;;;18.15;;
44728;SDS011;30457;53.590;9.922;2023-09-12T05:15:59;26.05;;;17.23;;
44728;SDS011;30457;53.590;9.922;2023-09-12T05:20:26;31.58;;;17.83;;
44728;SDS011;30457;53.590;9.922;2023-09-12T05:24:51;27.20;;;15.52;;
44728;SDS011;30457;53.590;9.922;2023-09-12T05:29:17;26.67;;;15.20;;
44728;SDS011;30457;53.590;9.922;2023-09-12T05:33:42;31.35;;;17.38;;
44728;SDS011;30457;53.590;9.922;2023-09-12T05:38:08;24.35;;;14.88;;
44728;SDS011;30457;53.590;9.922;2023-09-12T05:42:34;22.50;;;15.30;;
44728;SDS011;30457;53.590;9.922;2023-09-12T05:47:00;28.15;;;17.40;;
44728;SDS011;30457;53.590;9.922;2023-09-12T05:51:26;27.95;;;16.45;;
44728;SDS011;30457;53.590;9.922;2023-09-12T05:55:51;23.33;;;14.48;;
44728;SDS011;30457;53.590;9.922;2023-09-12T06:00:17;25.38;;;16.02;;
44728;SDS011;30457;53.590;9.922;2023-09-12T06:04:43;23.95;;;16.40;;
44728;SDS011;30457;53.590;9.922;2023-09-12T06:09:09;26.17;;;16.02;;
44728;SDS011;30457;53.590;9.922;2023-09-12T06:13:35;30.23;;;16.02;;
44728;SDS011;30457;53.590;9.922;2023-09-12T06:18:02;33.03;;;17.27;;
44728;SDS011;30457;53.590;9.922;2023-09-12T06:22:28;23.65;;;15.00;;
44728;SDS011;30457;53.590;9.922;2023-09-12T06:26:53;29.67;;;16.80;;
44728;SDS011;30457;53.590;9.922;2023-09-12T06:31:19;26.70;;;16.95;;
44728;SDS011;30457;53.590;9.922;2023-09-12T06:35:47;29.77;;;18.00;;
44728;SDS011;30457;53.590;9.922;2023-09-12T06:40:14;30.23;;;17.67;;
44728;SDS011;30457;53.590;9.922;2023-09-12T06:44:40;24.50;;;15.95;;
44728;SDS011;30457;53.590;9.922;2023-09-12T06:49:05;30.92;;;18.83;;
44728;SDS011;30457;53.590;9.922;2023-09-12T06:53:31;29.25;;;17.25;;
44728;SDS011;30457;53.590;9.922;2023-09-12T06:57:57;30.90;;;16.52;;
44728;SDS011;30457;53.590;9.922;2023-09-12T07:02:22;32.08;;;17.38;;
44728;SDS011;30457;53.590;9.922;2023-09-12T07:06:48;27.20;;;15.10;;
44728;SDS011;30457;53.590;9.922;2023-09-12T07:11:13;27.15;;;16.27;;
44728;SDS011;30457;53.590;9.922;2023-09-12T07:15:39;23.42;;;16.08;;
44728;SDS011;30457;53.590;9.922;2023-09-12T07:20:05;24.80;;;16.13;;
44728;SDS011;30457;53.590;9.922;2023-09-12T07:24:36;23.98;;;16.25;;
44728;SDS011;30457;53.590;9.922;2023-09-12T07:29:02;24.25;;;15.18;;
44728;SDS011;30457;53.590;9.922;2023-09-12T07:33:29;29.38;;;15.65;;
44728;SDS011;30457;53.590;9.922;2023-09-12T07:37:55;29.05;;;16.85;;
44728;SDS011;30457;53.590;9.922;2023-09-12T07:42:21;22.13;;;15.10;;
44728;SDS011;30457;53.590;9.922;2023-09-12T07:46:48;29.85;;;16.13;;
44728;SDS011;30457;53.590;9.922;2023-09-12T07:51:14;29.20;;;16.70;;
44728;SDS011;30457;53.590;9.922;2023-09-12T07:55:40;24.95;;;16.48;;
44728;SDS011;30457;53.590;9.922;2023-09-12T08:00:11;24.20;;;15.65;;
44728;SDS011;30457;53.590;9.922;2023-09-12T08:04:37;24.80;;;15.00;;
44728;SDS011;30457;53.590;9.922;2023-09-12T08:09:03;22.15;;;15.20;;
44728;SDS011;30457;53.590;9.922;2023-09-12T08:13:32;24.55;;;15.20;;
44728;SDS011;30457;53.590;9.922;2023-09-12T08:17:57;23.25;;;14.90;;
44728;SDS011;30457;53.590;9.922;2023-09-12T08:22:23;25.33;;;15.93;;
44728;SDS011;30457;53.590;9.922;2023-09-12T08:26:48;21.75;;;15.35;;
44728;SDS011;30457;53.590;9.922;2023-09-12T08:31:14;24.05;;;15.55;;
44728;SDS011;30457;53.590;9.922;2023-09-12T08:35:40;24.00;;;14.70;;
44728;SDS011;30457;53.590;9.922;2023-09-12T08:40:06;17.10;;;11.93;;
44728;SDS011;30457;53.590;9.922;2023-09-12T08:44:34;19.20;;;12.82;;
44728;SDS011;30457;53.590;9.922;2023-09-12T08:48:59;18.35;;;12.88;;
44728;SDS011;30457;53.590;9.922;2023-09-12T08:53:25;19.23;;;12.63;;
44728;SDS011;30457;53.590;9.922;2023-09-12T08:57:51;17.35;;;12.48;;
44728;SDS011;30457;53.590;9.922;2023-09-12T09:02:19;13.50;;;11.32;;
44728;SDS011;30457;53.590;9.922;2023-09-12T09:06:45;17.88;;;12.55;;
44728;SDS011;30457;53.590;9.922;2023-09-12T09:11:11;16.92;;;11.13;;
44728;SDS011;30457;53.590;9.922;2023-09-12T09:15:37;16.65;;;11.93;;
44728;SDS011;30457;53.590;9.922;2023-09-12T09:20:06;14.70;;;11.05;;
44728;SDS011;30457;53.590;9.922;2023-09-12T09:24:34;17.27;;;11.38;;
44728;SDS011;30457;53.590;9.922;2023-09-12T09:29:09;17.42;;;11.85;;
44728;SDS011;30457;53.590;9.922;2023-09-12T09:33:39;18.58;;;12.40;;
44728;SDS011;30457;53.590;9.922;2023-09-12T09:38:06;13.90;;;10.57;;
44728;SDS011;30457;53.590;9.922;2023-09-12T09:42:32;15.20;;;11.07;;
44728;SDS011;30457;53.590;9.922;2023-09-12T09:47:01;15.07;;;10.70;;
44728;SDS011;30457;53.590;9.922;2023-09-12T09:51:30;13.15;;;10.73;;
44728;SDS011;30457;53.590;9.922;2023-09-12T09:56:15;16.00;;;10.15;;
44728;SDS011;30457;53.590;9.922;2023-09-12T10:00:41;13.75;;;9.98;;
44728;SDS011;30457;53.590;9.922;2023-09-12T10:05:08;13.63;;;10.50;;
44728;SDS011;30457;53.590;9.922;2023-09-12T10:09:35;12.05;;;9.38;;
44728;SDS011;30457;53.590;9.922;2023-09-12T10:14:05;12.75;;;9.43;;
44728;SDS011;30457;53.590;9.922;2023-09-12T10:18:37;13.55;;;10.40;;
44728;SDS011;30457;53.590;9.922;2023-09-12T10:23:14;16.55;;;10.10;;
44728;SDS011;30457;53.590;9.922;2023-09-12T10:28:05;13.45;;;10.13;;
44728;SDS011;30457;53.590;9.922;2023-09-12T10:32:31;12.65;;;9.57;;
44728;SDS011;30457;53.590;9.922;2023-09-12T10:36:58;15.80;;;11.20;;
44728;SDS011;30457;53.590;9.922;2023-09-12T10:41:25;14.95;;;9.95;;
44728;SDS011;30457;53.590;9.922;2023-09-12T10:45:52;21.40;;;12.73;;
44728;SDS011;30457;53.590;9.922;2023-09-12T10:50:19;16.42;;;11.43;;
44728;SDS011;30457;53.590;9.922;2023-09-12T10:54:45;17.30;;;11.63;;
44728;SDS011;30457;53.590;9.922;2023-09-12T10:59:12;17.75;;;11.15;;
44728;SDS011;30457;53.590;9.922;2023-09-12T11:03:38;18.17;;;11.05;;
44728;SDS011;30457;53.590;9.922;2023-09-12T11:08:05;15.50;;;10.70;;
44728;SDS011;30457;53.590;9.922;2023-09-12T11:12:34;14.45;;;11.20;;
44728;SDS011;30457;53.590;9.922;2023-09-12T11:21:32;17.08;;;12.07;;
44728;SDS011;30457;53.590;9.922;2023-09-12T11:26:05;15.38;;;11.77;;
44728;SDS011;30457;53.590;9.922;2023-09-12T11:30:31;18.77;;;13.20;;
44728;SDS011;30457;53.590;9.922;2023-09-12T11:34:59;16.88;;;12.60;;
44728;SDS011;30457;53.590;9.922;2023-09-12T11:39:32;24.13;;;12.80;;
44728;SDS011;30457;53.590;9.922;2023-09-12T11:43:58;17.48;;;13.95;;
44728;SDS011;30457;53.590;9.922;2023-09-12T11:48:24;21.40;;;14.63;;
44728;SDS011;30457;53.590;9.922;2023-09-12T12:04:33;23.00;;;15.95;;
44728;SDS011;30457;53.590;9.922;2023-09-12T12:09:00;19.08;;;15.27;;
44728;SDS011;30457;53.590;9.922;2023-09-12T12:48:34;11.10;;;8.48;;
44728;SDS011;30457;53.590;9.922;2023-09-12T12:53:04;14.98;;;8.82;;
44728;SDS011;30457;53.590;9.922;2023-09-12T12:57:39;9.82;;;8.27;;
44728;SDS011;30457;53.590;9.922;2023-09-12T13:02:05;9.98;;;8.65;;
44728;SDS011;30457;53.590;9.922;2023-09-12T13:06:31;12.55;;;9.20;;
44728;SDS011;30457;53.590;9.922;2023-09-12T13:11:00;11.82;;;9.45;;
44728;SDS011;30457;53.590;9.922;2023-09-12T13:15:39;10.23;;;8.73;;
44728;SDS011;30457;53.590;9.922;2023-09-12T13:20:08;11.13;;;9.77;;
44728;SDS011;30457;53.590;9.922;2023-09-12T13:24:34;10.65;;;8.77;;
44728;SDS011;30457;53.590;9.922;2023-09-12T13:29:00;12.68;;;9.63;;
44728;SDS011;30457;53.590;9.922;2023-09-12T13:33:26;12.65;;;10.95;;
44728;SDS011;30457;53.590;9.922;2023-09-12T13:37:57;10.95;;;9.40;;
44728;SDS011;30457;53.590;9.922;2023-09-12T13:42:23;11.02;;;9.73;;
44728;SDS011;30457;53.590;9.922;2023-09-12T13:46:56;12.20;;;10.45;;
44728;SDS011;30457;53.590;9.922;2023-09-12T13:51:21;14.23;;;10.25;;
44728;SDS011;30457;53.590;9.922;2023-09-12T13:55:47;12.70;;;10.48;;
44728;SDS011;30457;53.590;9.922;2023-09-12T14:00:13;11.63;;;10.43;;
44728;SDS011;30457;53.590;9.922;2023-09-12T14:04:39;13.68;;;9.70;;
44728;SDS011;30457;53.590;9.922;2023-09-12T14:09:07;11.00;;;9.55;;
44728;SDS011;30457;53.590;9.922;2023-09-12T14:19:46;11.68;;;8.30;;
44728;SDS011;30457;53.590;9.922;2023-09-12T14:24:12;16.38;;;9.25;;
44728;SDS011;30457;53.590;9.922;2023-09-12T14:28:40;12.43;;;9.85;;
44728;SDS011;30457;53.590;9.922;2023-09-12T14:33:06;10.13;;;8.75;;
44728;SDS011;30457;53.590;9.922;2023-09-12T14:37:31;11.98;;;9.40;;
44728;SDS011;30457;53.590;9.922;2023-09-12T14:41:57;15.73;;;10.38;;
44728;SDS011;30457;53.590;9.922;2023-09-12T14:46:23;10.82;;;9.18;;
44728;SDS011;30457;53.590;9.922;2023-09-12T14:50:49;12.23;;;8.65;;
44728;SDS011;30457;53.590;9.922;2023-09-12T14:55:15;12.75;;;9.45;;
44728;SDS011;30457;53.590;9.922;2023-09-12T14:59:40;12.23;;;10.93;;
44728;SDS011;30457;53.590;9.922;2023-09-12T15:04:06;11.20;;;10.07;;
44728;SDS011;30457;53.590;9.922;2023-09-12T15:08:31;12.10;;;10.48;;
44728;SDS011;30457;53.590;9.922;2023-09-12T15:12:57;15.10;;;11.00;;
44728;SDS011;30457;53.590;9.922;2023-09-12T15:17:23;11.43;;;9.32;;
44728;SDS011;30457;53.590;9.922;2023-09-12T15:21:48;12.40;;;9.35;;
44728;SDS011;30457;53.590;9.922;2023-09-12T15:26:14;12.60;;;10.32;;
44728;SDS011;30457;53.590;9.922;2023-09-12T15:30:39;11.38;;;9.60;;
44728;SDS011;30457;53.590;9.922;2023-09-12T15:35:05;9.63;;;8.30;;
44728;SDS011;30457;53.590;9.922;2023-09-12T15:39:32;12.13;;;9.18;;
44728;SDS011;30457;53.590;9.922;2023-09-12T15:43:58;10.70;;;9.38;;
44728;SDS011;30457;53.590;9.922;2023-09-12T15:48:23;14.18;;;8.75;;
44728;SDS011;30457;53.590;9.922;2023-09-12T15:52:49;10.57;;;8.00;;
44728;SDS011;30457;53.590;9.922;2023-09-12T15:57:15;11.38;;;7.78;;
44728;SDS011;30457;53.590;9.922;2023-09-12T16:01:40;12.50;;;8.40;;
44728;SDS011;30457;53.590;9.922;2023-09-12T16:06:06;10.45;;;8.65;;
44728;SDS011;30457;53.590;9.922;2023-09-12T16:10:31;9.02;;;8.05;;
44728;SDS011;30457;53.590;9.922;2023-09-12T16:14:57;10.68;;;9.50;;
44728;SDS011;30457;53.590;9.922;2023-09-12T16:19:23;9.23;;;8.23;;
44728;SDS011;30457;53.590;9.922;2023-09-12T16:23:51;13.52;;;8.88;;
44728;SDS011;30457;53.590;9.922;2023-09-12T16:28:19;9.80;;;8.50;;
44728;SDS011;30457;53.590;9.922;2023-09-12T16:32:46;10.35;;;9.23;;
44728;SDS011;30457;53.590;9.922;2023-09-12T16:37:11;9.93;;;8.90;;
44728;SDS011;30457;53.590;9.922;2023-09-12T16:41:37;11.15;;;8.77;;
44728;SDS011;30457;53.590;9.922;2023-09-12T16:46:03;11.80;;;8.23;;
44728;SDS011;30457;53.590;9.922;2023-09-12T16:50:28;11.25;;;8.88;;
44728;SDS011;30457;53.590;9.922;2023-09-12T16:54:55;9.10;;;7.00;;
44728;SDS011;30457;53.590;9.922;2023-09-12T16:59:20;10.60;;;8.45;;
44728;SDS011;30457;53.590;9.922;2023-09-12T17:03:46;10.05;;;8.27;;
44728;SDS011;30457;53.590;9.922;2023-09-12T17:08:11;9.63;;;8.63;;
44728;SDS011;30457;53.590;9.922;2023-09-12T17:12:37;10.00;;;7.43;;
44728;SDS011;30457;53.590;9.922;2023-09-12T17:17:02;10.52;;;7.47;;
44728;SDS011;30457;53.590;9.922;2023-09-12T17:21:28;8.30;;;7.03;;
44728;SDS011;30457;53.590;9.922;2023-09-12T17:25:54;7.68;;;6.88;;
44728;SDS011;30457;53.590;9.922;2023-09-12T17:30:19;13.60;;;8.30;;
44728;SDS011;30457;53.590;9.922;2023-09-12T17:34:47;9.27;;;7.93;;
44728;SDS011;30457;53.590;9.922;2023-09-12T17:39:14;9.13;;;7.65;;
44728;SDS011;30457;53.590;9.922;2023-09-12T17:43:40;8.48;;;7.47;;
44728;SDS011;30457;53.590;9.922;2023-09-12T17:48:05;9.85;;;6.95;;
44728;SDS011;30457;53.590;9.922;2023-09-12T17:52:31;8.27;;;6.95;;
44728;SDS011;30457;53.590;9.922;2023-09-12T17:56:56;7.95;;;6.68;;
44728;SDS011;30457;53.590;9.922;2023-09-12T18:01:23;11.10;;;7.40;;
44728;SDS011;30457;53.590;9.922;2023-09-12T18:05:48;7.78;;;6.95;;
44728;SDS011;30457;53.590;9.922;2023-09-12T18:10:14;8.95;;;7.18;;
44728;SDS011;30457;53.590;9.922;2023-09-12T18:14:39;7.97;;;7.18;;
44728;SDS011;30457;53.590;9.922;2023-09-12T18:19:05;7.70;;;6.85;;
44728;SDS011;30457;53.590;9.922;2023-09-12T18:23:30;7.68;;;6.72;;
44728;SDS011;30457;53.590;9.922;2023-09-12T18:27:56;8.85;;;7.13;;
44728;SDS011;30457;53.590;9.922;2023-09-12T18:32:21;9.05;;;7.32;;
44728;SDS011;30457;53.590;9.922;2023-09-12T18:36:47;9.02;;;7.20;;
44728;SDS011;30457;53.590;9.922;2023-09-12T18:41:13;10.52;;;7.70;;
44728;SDS011;30457;53.590;9.922;2023-09-12T18:45:40;9.10;;;7.35;;
44728;SDS011;30457;53.590;9.922;2023-09-12T18:50:06;9.40;;;8.00;;
44728;SDS011;30457;53.590;9.922;2023-09-12T18:54:32;8.25;;;7.45;;
44728;SDS011;30457;53.590;9.922;2023-09-12T18:58:58;7.90;;;7.07;;
44728;SDS011;30457;53.590;9.922;2023-09-12T19:03:24;9.82;;;7.60;;
44728;SDS011;30457;53.590;9.922;2023-09-12T19:07:50;11.07;;;7.78;;
44728;SDS011;30457;53.590;9.922;2023-09-12T19:12:16;8.75;;;7.07;;
44728;SDS011;30457;53.590;9.922;2023-09-12T19:16:43;8.13;;;7.30;;
44728;SDS011;30457;53.590;9.922;2023-09-12T19:21:08;8.98;;;7.65;;
44728;SDS011;30457;53.590;9.922;2023-09-12T19:25:34;8.85;;;7.97;;
44728;SDS011;30457;53.590;9.922;2023-09-12T19:30:02;9.13;;;7.75;;
44728;SDS011;30457;53.590;9.922;2023-09-12T19:34:29;9.73;;;8.25;;
44728;SDS011;30457;53.590;9.922;2023-09-12T19:38:54;9.25;;;7.68;;
44728;SDS011;30457;53.590;9.922;2023-09-12T19:43:23;10.23;;;6.93;;
44728;SDS011;30457;53.590;9.922;2023-09-12T19:47:49;7.90;;;6.75;;
44728;SDS011;30457;53.590;9.922;2023-09-12T19:52:14;9.60;;;8.05;;
44728;SDS011;30457;53.590;9.922;2023-09-12T19:56:40;9.95;;;7.95;;
44728;SDS011;30457;53.590;9.922;2023-09-12T20:01:06;10.40;;;8.48;;
44728;SDS011;30457;53.590;9.922;2023-09-12T20:05:31;9.70;;;8.18;;
44728;SDS011;30457;53.590;9.922;2023-09-12T20:09:57;11.85;;;8.38;;
44728;SDS011;30457;53.590;9.922;2023-09-12T20:14:22;12.27;;;8.32;;
44728;SDS011;30457;53.590;9.922;2023-09-12T20:18:48;9.80;;;7.88;;
44728;SDS011;30457;53.590;9.922;2023-09-12T20:23:14;11.18;;;7.50;;
44728;SDS011;30457;53.590;9.922;2023-09-12T20:27:39;8.32;;;7.47;;
44728;SDS011;30457;53.590;9.922;2023-09-12T20:32:05;8.43;;;7.50;;
44728;SDS011;30457;53.590;9.922;2023-09-12T20:36:32;9.10;;;7.78;;
44728;SDS011;30457;53.590;9.922;2023-09-12T20:40:58;10.40;;;7.90;;
44728;SDS011;30457;53.590;9.922;2023-09-12T20:45:24;10.00;;;7.78;;
44728;SDS011;30457;53.590;9.922;2023-09-12T20:49:50;14.77;;;8.38;;
44728;SDS011;30457;53.590;9.922;2023-09-12T20:54:17;13.68;;;9.13;;
44728;SDS011;30457;53.590;9.922;2023-09-12T20:58:43;10.93;;;8.15;;
44728;SDS011;30457;53.590;9.922;2023-09-12T21:03:10;11.00;;;8.77;;
44728;SDS011;30457;53.590;9.922;2023-09-12T21:07:36;12.50;;;7.78;;
44728;SDS011;30457;53.590;9.922;2023-09-12T21:12:03;13.05;;;7.63;;
44728;SDS011;30457;53.590;9.922;2023-09-12T21:16:29;9.52;;;7.63;;
44728;SDS011;30457;53.590;9.922;2023-09-12T21:20:55;10.63;;;8.88;;
44728;SDS011;30457;53.590;9.922;2023-09-12T21:25:20;8.73;;;7.03;;
44728;SDS011;30457;53.590;9.922;2023-09-12T21:29:46;11.30;;;7.93;;
44728;SDS011;30457;53.590;9.922;2023-09-12T21:34:12;7.28;;;6.57;;
44728;SDS011;30457;53.590;9.922;2023-09-12T21:38:37;10.45;;;8.00;;
44728;SDS011;30457;53.590;9.922;2023-09-12T21:43:04;9.63;;;8.52;;
44728;SDS011;30457;53.590;9.922;2023-09-12T21:47:29;10.80;;;7.65;;
44728;SDS011;30457;53.590;9.922;2023-09-12T21:51:57;9.90;;;8.55;;
44728;SDS011;30457;53.590;9.922;2023-09-12T21:56:24;11.85;;;8.32;;
44728;SDS011;30457;53.590;9.922;2023-09-12T22:00:50;9.70;;;8.13;;
44728;SDS011;30457;53.590;9.922;2023-09-12T22:05:15;10.50;;;8.60;;
44728;SDS011;30457;53.590;9.922;2023-09-12T22:09:41;14.15;;;9.45;;
44728;SDS011;30457;53.590;9.922;2023-09-12T22:14:07;11.25;;;9.07;;
44728;SDS011;30457;53.590;9.922;2023-09-12T22:18:32;10.55;;;8.02;;
44728;SDS011;30457;53.590;9.922;2023-09-12T22:22:58;9.50;;;8.40;;
44728;SDS011;30457;53.590;9.922;2023-09-12T22:27:23;8.60;;;7.40;;
44728;SDS011;30457;53.590;9.922;2023-09-12T22:31:49;8.98;;;7.95;;
44728;SDS011;30457;53.590;9.922;2023-09-12T22:36:14;12.95;;;8.80;;
44728;SDS011;30457;53.590;9.922;2023-09-12T22:40:43;8.25;;;7.43;;
44728;SDS011;30457;53.590;9.922;2023-09-12T22:45:09;8.82;;;7.93;;
44728;SDS011;30457;53.590;9.922;2023-09-12T22:49:35;10.13;;;8.45;;
44728;SDS011;30457;53.590;9.922;2023-09-12T22:54:02;11.80;;;8.15;;
44728;SDS011;30457;53.590;9.922;2023-09-12T22:58:27;11.15;;;8.35;;
44728;SDS011;30457;53.590;9.922;2023-09-12T23:02:53;8.88;;;7.40;;
44728;SDS011;30457;53.590;9.922;2023-09-12T23:07:19;15.43;;;9.63;;
44728;SDS011;30457;53.590;9.922;2023-09-12T23:11:44;11.27;;;9.18;;
44728;SDS011;30457;53.590;9.922;2023-09-12T23:16:11;10.68;;;9.02;;
44728;SDS011;30457;53.590;9.922;2023-09-12T23:20:37;12.50;;;8.95;;
44728;SDS011;30457;53.590;9.922;2023-09-12T23:25:04;14.77;;;7.72;;
44728;SDS011;30457;53.590;9.922;2023-09-12T23:29:32;9.40;;;7.70;;
44728;SDS011;30457;53.590;9.922;2023-09-12T23:33:58;14.45;;;9.13;;
44728;SDS011;30457;53.590;9.922;2023-09-12T23:38:23;8.60;;;7.57;;
44728;SDS011;30457;53.590;9.922;2023-09-12T23:42:49;11.52;;;8.55;;
44728;SDS011;30457;53.590;9.922;2023-09-12T23:47:15;12.90;;;9.50;;
44728;SDS011;30457;53.590;9.922;2023-09-12T23:51:41;13.10;;;9.45;;
44728;SDS011;30457;53.590;9.922;2023-09-12T23:56:06;9.23;;;8.25;;
